createdAt,value
2019-01-06T00:00:59.809Z,95918.31
2019-01-06T00:03:47.459Z,95927.27
2019-01-06T00:06:35.073Z,95926.70
2019-01-06T00:09:33.631Z,95924.36
2019-01-06T00:12:21.330Z,95919.08
2019-01-06T00:15:09.252Z,95918.67
2019-01-06T00:17:57.093Z,95931.55
2019-01-06T00:20:44.807Z,95935.57
2019-01-06T00:23:32.405Z,95945.35
2019-01-06T00:26:20.272Z,95939.94
2019-01-06T00:29:03.533Z,95939.41
2019-01-06T00:31:51.135Z,95932.06
2019-01-06T00:34:38.709Z,95939.66
2019-01-06T00:37:26.580Z,95935.41
2019-01-06T00:40:14.162Z,95929.69
2019-01-06T00:42:54.016Z,95923.17
2019-01-06T00:45:41.627Z,95925.73
2019-01-06T00:48:29.215Z,95920.83
2019-01-06T00:51:16.796Z,95927.73
2019-01-06T00:54:23.686Z,95931.11
2019-01-06T00:57:11.288Z,95934.36
2019-01-06T00:59:58.886Z,95937.11
2019-01-06T01:02:43.169Z,95947.28
2019-01-06T01:08:44.486Z,95937.17
2019-01-06T01:11:32.088Z,95939.91
2019-01-06T01:14:19.671Z,95942.03
2019-01-06T01:17:07.511Z,95947.34
2019-01-06T01:19:46.168Z,95945.09
2019-01-06T01:22:33.949Z,95939.36
2019-01-06T01:25:21.706Z,95940.97
2019-01-06T01:28:09.607Z,95949.41
2019-01-06T01:31:00.264Z,95953.45
2019-01-06T01:33:47.860Z,95950.48
2019-01-06T01:36:35.503Z,95958.74
2019-01-06T01:39:42.067Z,95964.00
2019-01-06T01:42:30.266Z,95966.44
2019-01-06T01:45:37.111Z,95972.32
2019-01-06T01:48:24.701Z,95962.61
2019-01-06T01:51:12.284Z,95957.91
2019-01-06T01:54:00.000Z,95959.94
2019-01-06T01:56:47.596Z,95957.52
2019-01-06T01:59:35.211Z,95962.37
2019-01-06T02:02:22.858Z,95960.84
2019-01-06T02:05:10.503Z,95965.52
2019-01-06T02:07:58.152Z,95966.54
2019-01-06T02:10:45.762Z,95972.33
2019-01-06T02:13:33.390Z,95961.52
2019-01-06T02:16:21.045Z,95954.03
2019-01-06T02:19:27.900Z,95959.26
2019-01-06T02:22:15.507Z,95968.50
2019-01-06T02:25:03.130Z,95964.36
2019-01-06T02:27:50.734Z,95967.04
2019-01-06T02:30:38.563Z,95977.34
2019-01-06T02:33:26.232Z,95970.71
2019-01-06T02:36:07.440Z,95972.61
2019-01-06T02:39:01.123Z,95975.38
2019-01-06T02:41:48.951Z,95970.74
2019-01-06T02:44:36.634Z,95980.06
2019-01-06T02:47:24.356Z,95987.07
2019-01-06T02:50:12.352Z,95976.36
2019-01-06T02:53:02.876Z,95978.88
2019-01-06T02:55:51.005Z,95982.80
2019-01-06T02:58:30.592Z,95985.66
2019-01-06T03:01:18.468Z,95979.59
2019-01-06T03:04:06.204Z,95971.52
2019-01-06T03:09:59.719Z,95976.19
2019-01-06T03:12:50.372Z,95974.58
2019-01-06T03:15:38.208Z,95969.33
2019-01-06T03:18:48.176Z,95971.64
2019-01-06T03:21:36.064Z,95964.84
2019-01-06T03:24:23.809Z,95966.20
2019-01-06T03:27:01.322Z,95964.19
2019-01-06T03:29:52.285Z,95963.02
2019-01-06T03:32:40.111Z,95951.84
2019-01-06T03:35:28.065Z,95952.06
2019-01-06T03:38:15.797Z,95951.09
2019-01-06T03:41:03.650Z,95953.98
2019-01-06T03:43:55.456Z,95953.53
2019-01-06T03:46:43.285Z,95953.75
2019-01-06T03:49:31.064Z,95955.88
2019-01-06T03:52:18.689Z,95961.30
2019-01-06T03:55:06.306Z,95951.91
2019-01-06T03:57:53.918Z,95956.66
2019-01-06T04:00:41.525Z,95954.58
2019-01-06T04:03:29.127Z,95958.77
2019-01-06T04:06:17.070Z,95953.95
2019-01-06T04:09:04.679Z,95948.08
2019-01-06T04:11:52.289Z,95945.35
2019-01-06T04:14:39.891Z,95941.29
2019-01-06T04:17:27.534Z,95941.38
2019-01-06T04:20:15.176Z,95936.70
2019-01-06T04:23:03.022Z,95937.22
2019-01-06T04:25:50.605Z,95946.09
2019-01-06T04:28:38.210Z,95945.28
2019-01-06T04:31:25.799Z,95945.16
2019-01-06T04:34:13.418Z,95941.53
2019-01-06T04:37:01.286Z,95945.52
2019-01-06T04:39:48.931Z,95943.54
2019-01-06T04:45:26.428Z,95944.98
2019-01-06T04:48:14.025Z,95936.01
2019-01-06T04:51:20.916Z,95948.30
2019-01-06T04:54:08.501Z,95940.66
2019-01-06T04:56:56.132Z,95936.77
2019-01-06T04:59:43.814Z,95943.36
2019-01-06T05:02:31.679Z,95937.28
2019-01-06T05:08:08.117Z,95930.73
2019-01-06T05:10:50.378Z,95930.37
2019-01-06T05:13:30.004Z,95937.65
2019-01-06T05:16:09.700Z,95941.03
2019-01-06T05:18:57.308Z,95943.27
2019-01-06T05:21:44.921Z,95944.28
2019-01-06T05:24:32.570Z,95947.48
2019-01-06T05:27:20.637Z,95951.72
2019-01-06T05:30:08.489Z,95950.21
2019-01-06T05:32:53.408Z,95949.95
2019-01-06T05:35:41.054Z,95961.00
2019-01-06T05:38:23.862Z,95953.83
2019-01-06T05:41:10.321Z,95962.57
2019-01-06T05:43:50.787Z,95954.83
2019-01-06T05:46:38.388Z,95948.42
2019-01-06T05:49:26.108Z,95956.19
2019-01-06T05:52:13.708Z,95957.58
2019-01-06T05:55:01.327Z,95965.03
2019-01-06T05:57:49.168Z,95970.61
2019-01-06T06:00:36.811Z,95972.66
2019-01-06T06:03:13.439Z,95969.72
2019-01-06T06:06:01.070Z,95973.23
2019-01-06T06:08:48.862Z,95965.31
2019-01-06T06:11:36.478Z,95972.03
2019-01-06T06:14:24.095Z,95980.86
2019-01-06T06:17:12.011Z,95976.16
2019-01-06T06:19:59.620Z,95976.69
2019-01-06T06:22:47.232Z,95978.18
2019-01-06T06:25:34.852Z,95977.02
2019-01-06T06:31:11.118Z,95989.54
2019-01-06T06:33:58.723Z,95986.42
2019-01-06T06:36:46.585Z,95989.44
2019-01-06T06:39:34.174Z,95989.94
2019-01-06T06:42:12.010Z,95987.30
2019-01-06T06:44:59.650Z,95996.18
2019-01-06T06:47:47.498Z,95988.78
2019-01-06T06:50:35.179Z,95994.08
2019-01-06T06:53:22.795Z,96003.19
2019-01-06T06:56:05.352Z,96000.36
2019-01-06T06:58:54.984Z,95998.98
2019-01-06T07:01:56.698Z,96004.28
2019-01-06T07:04:44.326Z,96002.67
2019-01-06T07:07:32.107Z,96008.97
2019-01-06T07:10:19.738Z,96011.98
2019-01-06T07:13:07.352Z,96020.98
2019-01-06T07:15:55.002Z,96023.71
2019-01-06T07:18:43.814Z,96026.80
2019-01-06T07:21:31.469Z,96029.59
2019-01-06T07:24:19.065Z,96034.80
2019-01-06T07:27:06.689Z,96042.69
2019-01-06T07:29:54.299Z,96045.22
2019-01-06T07:32:42.166Z,96049.36
2019-01-06T07:35:30.014Z,96053.59
2019-01-06T07:41:31.831Z,96064.41
2019-01-06T07:44:19.973Z,96065.02
2019-01-06T07:47:07.568Z,96062.16
2019-01-06T07:49:55.223Z,96070.92
2019-01-06T07:52:42.875Z,96067.91
2019-01-06T07:55:30.620Z,96063.97
2019-01-06T07:58:18.255Z,96072.59
2019-01-06T08:01:05.902Z,96076.96
2019-01-06T08:04:12.972Z,96081.34
2019-01-06T08:07:00.907Z,96080.09
2019-01-06T08:09:48.659Z,96080.08
2019-01-06T08:12:36.309Z,96085.87
2019-01-06T08:15:24.448Z,96082.89
2019-01-06T08:18:12.323Z,96092.66
2019-01-06T08:21:00.056Z,96095.88
2019-01-06T08:23:47.741Z,96100.01
2019-01-06T08:26:35.614Z,96105.00
2019-01-06T08:29:23.473Z,96104.67
2019-01-06T08:32:11.066Z,96107.91
2019-01-06T08:34:58.930Z,96112.38
2019-01-06T08:37:46.976Z,96110.61
2019-01-06T08:40:34.618Z,96118.91
2019-01-06T08:43:22.187Z,96114.83
2019-01-06T08:46:10.843Z,96112.50
2019-01-06T08:48:58.420Z,96112.92
2019-01-06T08:51:46.048Z,96117.44
2019-01-06T08:57:23.919Z,96115.88
2019-01-06T09:00:11.527Z,96118.33
2019-01-06T09:02:59.196Z,96117.84
2019-01-06T09:05:46.807Z,96117.50
2019-01-06T09:08:37.148Z,96124.09
2019-01-06T09:11:24.719Z,96116.41
2019-01-06T09:14:03.694Z,96119.59
2019-01-06T09:16:51.284Z,96120.66
2019-01-06T09:19:38.872Z,96115.84
2019-01-06T09:25:21.398Z,96119.09
2019-01-06T09:28:08.985Z,96117.43
2019-01-06T09:30:56.599Z,96124.59
2019-01-06T09:33:44.251Z,96121.44
2019-01-06T09:36:31.783Z,96127.64
2019-01-06T09:39:15.294Z,96129.92
2019-01-06T09:42:02.954Z,96134.95
2019-01-06T09:44:50.614Z,96143.62
2019-01-06T09:47:41.294Z,96140.31
2019-01-06T09:50:37.329Z,96136.31
2019-01-06T09:53:24.925Z,96136.58
2019-01-06T09:59:23.097Z,96141.33
2019-01-06T10:02:05.911Z,96141.80
2019-01-06T10:04:53.541Z,96141.23
2019-01-06T10:07:41.157Z,96138.33
2019-01-06T10:10:36.324Z,96136.63
2019-01-06T10:13:23.911Z,96138.53
2019-01-06T10:16:11.525Z,96138.27
2019-01-06T10:18:50.237Z,96137.33
2019-01-06T10:21:38.086Z,96136.97
2019-01-06T10:24:25.682Z,96132.14
2019-01-06T10:27:06.653Z,96138.88
2019-01-06T10:29:54.242Z,96138.73
2019-01-06T10:32:32.198Z,96134.52
2019-01-06T10:35:19.813Z,96127.52
2019-01-06T10:38:07.401Z,96131.52
2019-01-06T10:40:45.018Z,96131.64
2019-01-06T10:43:35.919Z,96132.72
2019-01-06T10:46:23.712Z,96133.44
2019-01-06T10:49:11.333Z,96138.14
2019-01-06T10:51:59.154Z,96144.06
2019-01-06T10:54:46.767Z,96136.84
2019-01-06T10:57:34.374Z,96140.30
2019-01-06T11:00:22.119Z,96148.20
2019-01-06T11:05:58.854Z,96151.41
2019-01-06T11:08:46.438Z,96145.23
2019-01-06T11:11:34.047Z,96143.63
2019-01-06T11:14:21.894Z,96141.27
2019-01-06T11:17:09.738Z,96151.28
2019-01-06T11:19:57.343Z,96144.72
2019-01-06T11:22:44.956Z,96144.85
2019-01-06T11:25:32.546Z,96139.58
2019-01-06T11:28:20.144Z,96142.45
2019-01-06T11:31:08.080Z,96147.29
2019-01-06T11:33:51.486Z,96149.31
2019-01-06T11:36:48.820Z,96140.39
2019-01-06T11:39:36.641Z,96148.19
2019-01-06T11:42:24.319Z,96148.71
2019-01-06T11:45:01.664Z,96145.98
2019-01-06T11:47:49.293Z,96146.78
2019-01-06T11:50:36.912Z,96148.98
2019-01-06T11:53:43.796Z,96148.33
2019-01-06T11:56:33.874Z,96144.64
2019-01-06T11:59:21.492Z,96133.06
2019-01-06T12:02:00.799Z,96136.63
2019-01-06T12:04:48.436Z,96142.69
2019-01-06T12:07:36.037Z,96130.77
2019-01-06T12:10:19.003Z,96133.95
2019-01-06T12:13:06.582Z,96128.97
2019-01-06T12:15:54.170Z,96132.69
2019-01-06T12:18:41.777Z,96124.06
2019-01-06T12:21:31.298Z,96131.15
2019-01-06T12:24:22.005Z,96133.01
2019-01-06T12:27:09.647Z,96127.44
2019-01-06T12:29:49.859Z,96133.11
2019-01-06T12:32:37.474Z,96129.34
2019-01-06T12:35:25.348Z,96130.93
2019-01-06T12:38:12.988Z,96129.20
2019-01-06T12:41:00.592Z,96129.10
2019-01-06T12:43:48.189Z,96127.36
2019-01-06T12:46:36.004Z,96131.43
2019-01-06T12:49:23.982Z,96123.53
2019-01-06T12:52:11.580Z,96135.63
2019-01-06T12:54:59.186Z,96136.78
2019-01-06T12:57:46.804Z,96139.31
2019-01-06T13:00:34.432Z,96141.27
2019-01-06T13:03:22.112Z,96138.80
2019-01-06T13:06:09.714Z,96141.59
2019-01-06T13:08:57.550Z,96137.19
2019-01-06T13:11:57.883Z,96148.36
2019-01-06T13:14:46.338Z,96146.77
2019-01-06T13:17:34.213Z,96149.39
2019-01-06T13:20:21.895Z,96152.63
2019-01-06T13:23:09.474Z,96147.47
2019-01-06T13:25:51.853Z,96154.59
2019-01-06T13:28:39.461Z,96152.39
2019-01-06T13:34:18.726Z,96152.02
2019-01-06T13:37:06.340Z,96158.25
2019-01-06T13:40:13.213Z,96155.98
2019-01-06T13:43:00.901Z,96162.48
2019-01-06T13:45:48.726Z,96157.16
2019-01-06T13:48:36.336Z,96173.25
2019-01-06T13:51:27.113Z,96170.07
2019-01-06T13:54:14.738Z,96172.33
2019-01-06T13:57:02.337Z,96168.13
2019-01-06T13:59:49.990Z,96164.59
2019-01-06T14:02:37.602Z,96169.38
2019-01-06T14:05:22.600Z,96165.45
2019-01-06T14:08:12.368Z,96171.20
2019-01-06T14:10:55.708Z,96174.87
2019-01-06T14:13:43.314Z,96169.70
2019-01-06T14:16:31.046Z,96173.20
2019-01-06T14:19:18.649Z,96179.34
2019-01-06T14:22:06.242Z,96181.42
2019-01-06T14:24:53.849Z,96182.05
2019-01-06T14:27:41.932Z,96183.41
2019-01-06T14:30:29.604Z,96197.10
2019-01-06T14:33:17.248Z,96202.63
2019-01-06T14:36:04.835Z,96197.42
2019-01-06T14:38:52.471Z,96205.61
2019-01-06T14:41:32.508Z,96197.72
2019-01-06T14:44:21.494Z,96201.62
2019-01-06T14:47:09.090Z,96205.23
2019-01-06T14:49:56.527Z,96204.94
2019-01-06T14:52:44.162Z,96207.00
2019-01-06T14:55:31.766Z,96207.66
2019-01-06T14:58:19.393Z,96210.80
2019-01-06T15:01:07.008Z,96223.09
2019-01-06T15:03:54.873Z,96223.81
2019-01-06T15:06:42.549Z,96223.42
2019-01-06T15:09:30.179Z,96236.05
2019-01-06T15:12:09.695Z,96232.50
2019-01-06T15:14:57.362Z,96233.47
2019-01-06T15:17:45.279Z,96240.05
2019-01-06T15:20:32.999Z,96242.53
2019-01-06T15:23:13.427Z,96242.34
2019-01-06T15:26:01.076Z,96238.63
2019-01-06T15:28:49.010Z,96239.30
2019-01-06T15:31:36.681Z,96234.59
2019-01-06T15:34:24.336Z,96238.35
2019-01-06T15:37:15.182Z,96239.23
2019-01-06T15:40:01.101Z,96237.97
2019-01-06T15:42:48.952Z,96239.55
2019-01-06T15:45:36.575Z,96235.17
2019-01-06T15:48:18.957Z,96237.89
2019-01-06T15:54:11.668Z,96247.02
2019-01-06T15:56:59.266Z,96249.89
2019-01-06T15:59:46.958Z,96245.38
2019-01-06T16:02:35.257Z,96244.63
2019-01-06T16:05:22.937Z,96247.29
2019-01-06T16:08:09.240Z,96244.73
2019-01-06T16:10:56.857Z,96253.46
2019-01-06T16:13:44.435Z,96252.80
2019-01-06T16:16:32.051Z,96255.03
2019-01-06T16:19:19.647Z,96262.98
2019-01-06T16:22:07.273Z,96257.29
2019-01-06T16:24:55.182Z,96262.83
2019-01-06T16:27:42.828Z,96259.28
2019-01-06T16:30:30.413Z,96261.78
2019-01-06T16:33:18.006Z,96261.66
2019-01-06T16:36:00.074Z,96254.41
2019-01-06T16:38:48.665Z,96250.07
2019-01-06T16:41:55.495Z,96257.13
2019-01-06T16:44:43.128Z,96253.83
2019-01-06T16:47:30.717Z,96244.13
2019-01-06T16:50:18.571Z,96254.43
2019-01-06T16:56:11.626Z,96257.64
2019-01-06T16:58:53.231Z,96257.79
2019-01-06T17:01:40.850Z,96264.54
2019-01-06T17:04:28.477Z,96269.22
2019-01-06T17:07:16.083Z,96263.73
2019-01-06T17:10:03.687Z,96264.95
2019-01-06T17:12:51.527Z,96271.47
2019-01-06T17:15:35.964Z,96265.06
2019-01-06T17:18:23.583Z,96261.17
2019-01-06T17:21:11.485Z,96262.25
2019-01-06T17:24:18.336Z,96254.03
2019-01-06T17:27:05.964Z,96266.94
2019-01-06T17:29:53.569Z,96271.98
2019-01-06T17:32:41.402Z,96275.20
2019-01-06T17:35:28.991Z,96272.98
2019-01-06T17:38:16.887Z,96274.95
2019-01-06T17:41:04.510Z,96278.50
2019-01-06T17:43:52.588Z,96284.11
2019-01-06T17:46:40.552Z,96284.13
2019-01-06T17:49:28.192Z,96284.92
2019-01-06T17:52:15.799Z,96283.09
2019-01-06T17:55:03.452Z,96280.87
2019-01-06T17:57:51.058Z,96285.48
2019-01-06T18:00:34.333Z,96286.30
2019-01-06T18:03:21.912Z,96291.95
2019-01-06T18:05:59.922Z,96291.45
2019-01-06T18:08:47.519Z,96292.77
2019-01-06T18:11:35.173Z,96284.83
2019-01-06T18:14:22.814Z,96290.56
2019-01-06T18:17:10.410Z,96285.24
2019-01-06T18:19:58.111Z,96286.67
2019-01-06T18:22:45.746Z,96288.95
2019-01-06T18:25:36.574Z,96292.33
2019-01-06T18:28:24.430Z,96288.91
2019-01-06T18:31:12.103Z,96288.99
2019-01-06T18:33:59.751Z,96288.06
2019-01-06T18:37:06.748Z,96291.86
2019-01-06T18:39:54.493Z,96281.30
2019-01-06T18:42:42.524Z,96288.52
2019-01-06T18:45:36.287Z,96286.33
2019-01-06T18:48:23.928Z,96286.06
2019-01-06T18:51:11.516Z,96282.00
2019-01-06T18:53:59.126Z,96283.30
2019-01-06T18:56:46.728Z,96292.77
2019-01-06T18:59:46.370Z,96291.52
2019-01-06T19:02:28.427Z,96289.36
2019-01-06T19:05:16.031Z,96289.84
2019-01-06T19:08:03.676Z,96283.57
2019-01-06T19:10:51.271Z,96282.08
2019-01-06T19:13:41.920Z,96290.77
2019-01-06T19:16:29.214Z,96293.04
2019-01-06T19:19:16.812Z,96297.30
2019-01-06T19:22:04.398Z,96296.81
2019-01-06T19:24:52.027Z,96301.70
2019-01-06T19:27:39.713Z,96302.95
2019-01-06T19:30:24.708Z,96300.06
2019-01-06T19:33:12.354Z,96301.65
2019-01-06T19:36:00.224Z,96302.10
2019-01-06T19:38:45.847Z,96297.34
2019-01-06T19:44:38.141Z,96295.19
2019-01-06T19:47:45.000Z,96290.27
2019-01-06T19:50:32.585Z,96292.88
2019-01-06T19:53:20.483Z,96290.74
2019-01-06T19:56:08.119Z,96285.91
2019-01-06T19:58:55.704Z,96291.02
2019-01-06T20:01:43.321Z,96293.89
2019-01-06T20:04:30.922Z,96301.62
2019-01-06T20:07:18.537Z,96297.66
2019-01-06T20:10:06.138Z,96304.81
2019-01-06T20:12:53.743Z,96303.23
2019-01-06T20:15:41.432Z,96290.66
2019-01-06T20:18:29.020Z,96298.27
2019-01-06T20:21:16.671Z,96302.44
2019-01-06T20:24:04.321Z,96308.39
2019-01-06T20:27:11.223Z,96306.52
2019-01-06T20:29:58.847Z,96310.03
2019-01-06T20:32:46.463Z,96319.00
2019-01-06T20:35:34.051Z,96314.80
2019-01-06T20:38:21.917Z,96317.88
2019-01-06T20:41:29.020Z,96312.92
2019-01-06T20:44:16.872Z,96315.14
2019-01-06T20:47:04.476Z,96312.22
2019-01-06T20:49:52.092Z,96314.50
2019-01-06T20:52:41.883Z,96310.67
2019-01-06T20:55:29.078Z,96310.64
2019-01-06T20:58:16.671Z,96310.30
2019-01-06T21:01:04.323Z,96308.06
2019-01-06T21:03:51.927Z,96309.56
2019-01-06T21:06:39.536Z,96311.61
2019-01-06T21:09:27.971Z,96312.13
2019-01-06T21:12:15.908Z,96315.25
2019-01-06T21:15:03.503Z,96309.89
2019-01-06T21:18:10.598Z,96326.72
2019-01-06T21:20:58.356Z,96320.02
2019-01-06T21:23:45.994Z,96321.25
2019-01-06T21:26:32.069Z,96328.36
2019-01-06T21:29:19.691Z,96326.02
2019-01-06T21:32:02.384Z,96321.28
2019-01-06T21:34:43.931Z,96327.13
2019-01-06T21:37:31.616Z,96326.30
2019-01-06T21:40:19.176Z,96332.34
2019-01-06T21:43:26.028Z,96329.41
2019-01-06T21:46:13.685Z,96329.39
2019-01-06T21:49:01.444Z,96327.69
2019-01-06T21:51:49.065Z,96331.00
2019-01-06T21:54:36.673Z,96334.09
2019-01-06T21:57:24.500Z,96327.70
2019-01-06T22:00:12.175Z,96335.34
2019-01-06T22:02:59.797Z,96336.68
2019-01-06T22:05:47.409Z,96331.55
2019-01-06T22:11:25.321Z,96336.09
2019-01-06T22:14:12.967Z,96340.41
2019-01-06T22:16:53.241Z,96336.91
2019-01-06T22:19:35.832Z,96322.91
2019-01-06T22:22:14.304Z,96322.49
2019-01-06T22:25:01.925Z,96322.98
2019-01-06T22:27:49.551Z,96321.70
2019-01-06T22:30:43.117Z,96326.02
2019-01-06T22:33:30.884Z,96322.03
2019-01-06T22:36:18.500Z,96318.89
2019-01-06T22:39:06.303Z,96319.95
2019-01-06T22:41:53.954Z,96315.04
2019-01-06T22:44:41.788Z,96309.81
2019-01-06T22:50:19.095Z,96316.41
2019-01-06T22:53:06.923Z,96310.81
2019-01-06T22:55:54.894Z,96315.00
2019-01-06T22:58:42.499Z,96313.52
2019-01-06T23:01:33.159Z,96307.61
2019-01-06T23:04:20.811Z,96314.30
2019-01-06T23:07:08.448Z,96319.97
2019-01-06T23:09:56.103Z,96324.98
2019-01-06T23:12:43.800Z,96315.55
2019-01-06T23:15:31.590Z,96323.33
2019-01-06T23:18:19.211Z,96322.59
2019-01-06T23:21:27.353Z,96317.55
2019-01-06T23:24:14.962Z,96321.28
2019-01-06T23:27:02.577Z,96310.41
2019-01-06T23:29:50.280Z,96319.76
2019-01-06T23:32:37.879Z,96312.36
2019-01-06T23:35:44.971Z,96317.90
2019-01-06T23:38:33.610Z,96316.32
2019-01-06T23:41:21.213Z,96309.69
2019-01-06T23:44:08.892Z,96315.05
2019-01-06T23:46:56.744Z,96313.89
2019-01-06T23:49:44.332Z,96307.53
2019-01-06T23:52:32.058Z,96307.34
2019-01-06T23:55:19.654Z,96318.81
2019-01-06T23:58:07.625Z,96314.95
